SHMÚ vydal meteorologické výstrahy na High temperatures Display warnings

TAF

Aerodrome Forecast TAF

TAF description (Slovak)

23.06.2017 - 17:00 UTC

TAF LZIB 231700Z 2318/2418 34006KT CAVOK
    BECMG 2408/2410 30012KT
    BECMG 2414/2416 23007KT=
TAF LZKZ 231700Z 2318/2418 34012KT CAVOK
    BECMG 2318/2320 33005KT
    BECMG 2408/2410 21006KT
    TEMPO 2410/2415 9999 FEW045=
TAF LZTT 231700Z 2318/2418 28015KT 9999 FEW045 BKN070
    BECMG 2318/2320 27006KT
    BECMG 2320/2322 CAVOK
    TEMPO 2410/2413 9999 SCT050=

23.06.2017 - 17:00 UTC

TAF LZSL 231700Z 2318/2403 30010KT 9999 FEW060
    BECMG 2318/2320 33005KT CAVOK=
TAF LZPP 231700Z 2318/2403 29012KT CAVOK
    BECMG 2318/2320 34007KT
    PROB30 TEMPO 2321/2400 9999 FEW040 BKN080=
TAF LZZI 231700Z 2318/2403 34005KT 9999 FEW050
    BECMG 2318/2320 VRB02KT
    PROB30 TEMPO 2322/2403 1800 BCFG SCT001=

23.06.2017 - 14:00 UTC

TAF LZSL 231400Z 2315/2400 28011KT 9999 FEW050 SCT080
    TEMPO 2315/2316 29015G25KT SCT045
    BECMG 2316/2318 30007KT
    BECMG 2318/2320 CAVOK=
TAF LZPP 231400Z 2315/2400 29012KT CAVOK
    TEMPO 2315/2317 31020G30KT
    TEMPO 2317/2322 FEW040 BKN100
    BECMG 2318/2320 34007KT=
TAF LZZI 231400Z 2315/2400 27008KT 9999 SCT050
    TEMPO 2315/2317 28013KT
    BECMG 2317/2319 35004KT
    PROB40 TEMPO 2317/2321 SHRA BKN040 FEW050CB=

23.06.2017 - 11:00 UTC

TAF LZIB 231100Z 2312/2412 29016KT 9999 FEW045 SCT070
    TEMPO 2312/2317 28020G30KT
    PROB40 TEMPO 2312/2314 -SHRA SCT040 FEW050CB
    BECMG 2320/2322 32007KT
    BECMG 2400/2402 CAVOK
    BECMG 2408/2410 30013KT=
TAF LZKZ 231100Z 2312/2412 23008KT 9999 SCT030 BKN060
    BECMG 2312/2314 34010KT
    PROB40 TEMPO 2312/2315 34015G27KT SHRA BKN030 FEW040CB
    BECMG 2318/2320 35005KT CAVOK
    BECMG 2408/2410 21007KT=
TAF LZTT 231100Z 2312/2412 25017KT 9999 FEW050
    TEMPO 2312/2315 26022G32KT
    PROB40 TEMPO 2312/2316 SHRA FEW040CB BKN060
    BECMG 2318/2320 24006KT CAVOK
    TEMPO 2408/2412 9999 SCT055=

23.06.2017 - 11:00 UTC

TAF LZSL 231100Z 2312/2321 28011KT 9999 FEW040 SCT080
    TEMPO 2312/2315 29015G25KT -SHRA SCT040 FEW045CB
    PROB30 TEMPO 2312/2313 -TSRA SCT035CB BKN050
    BECMG 2316/2318 30007KT=
TAF LZPP 231100Z 2312/2321 29012KT 9999 SCT043
    TEMPO 2312/2316 31020G30KT
    PROB40 TEMPO 2312/2315 SHRA BKN040 FEW045CB
    BECMG 2317/2319 35008KT FEW045 SCT100=
TAF LZZI 231100Z 2312/2321 27008KT 9999 SCT035
    TEMPO 2312/2315 28015G25KT SHRA BKN030 FEW040CB
    BECMG 2316/2318 32004KT=

23.06.2017 - 08:00 UTC

TAF LZSL 230800Z 2309/2318 28011KT 9999 FEW040 SCT080
    TEMPO 2309/2313 29015G25KT -SHRA FEW035CB SCT060
    PROB40 TEMPO 2309/2312 5000 TSRA SCT025CB BKN040
    BECMG 2316/2318 30007KT=
TAF LZPP 230800Z 2309/2318 29012KT 9999 SCT043
    TEMPO 2309/2314 31020G30KT
    TEMPO 2309/2312 -TSRA BKN040 FEW045CB
    BECMG 2316/2318 35008KT FEW045 SCT100=
TAF LZZI 230800Z 2309/2318 27008KT 9999 SCT030
    PROB40 TEMPO 2311/2315 28015G25KT SHRA BKN030 FEW040CB
    BECMG 2316/2318 32004KT=

23.06.2017 - 05:00 UTC

TAF LZSL 230500Z 2306/2315 26010KT 9999 FEW040 SCT080
    TEMPO 2308/2312 27015G25KT -SHRA FEW040CB SCT060
    PROB40 TEMPO 2308/2312 4500 TSRA SCT025CB BKN050=
TAF LZPP 230500Z 2306/2315 28010KT 9999 SCT045
    TEMPO 2306/2307 27020KT -SHRA FEW025CB SCT045
    BECMG 2309/2311 30018KT
    TEMPO 2309/2313 31018G28KT -TSRA BKN040 SCT045CB=
TAF LZZI 230500Z 2306/2315 24006KT 9999 FEW040 BKN090
    TEMPO 2306/2310 -SHRA FEW030CB BKN050
    BECMG 2307/2309 26012KT
    PROB30 TEMPO 2311/2315 27015G25KT -TSRA SCT040CB BKN045=

23.06.2017 - 05:00 UTC

TAF LZIB 230500Z 2306/2406 29016KT CAVOK
    TEMPO 2306/2307 9999 -SHRA FEW030CB SCT065
    TEMPO 2307/2317 28020G30KT
    PROB40 TEMPO 2308/2314 9999 -TSRA SCT050CB BKN060
    BECMG 2320/2322 32008KT=
TAF LZKZ 230500Z 2306/2406 VRB02KT 9999 FEW040 BKN090
    BECMG 2306/2308 23010KT
    TEMPO 2306/2310 34015G27KT 4000 TSRA SCT030CB BKN045
    PROB30 TEMPO 2310/2314 TSRA SCT045CB SCT070
    BECMG 2313/2315 35012KT
    BECMG 2318/2320 35006KT CAVOK=
TAF LZTT 230500Z 2306/2406 25014KT 9999 SCT060
    TEMPO 2306/2310 26020G30KT 5000 TSRA BKN030 SCT035CB
    TEMPO 2310/2315 27020KT -SHRA FEW040CB SCT060
    BECMG 2317/2319 29006KT CAVOK=

23.06.2017 - 02:00 UTC

TAF LZSL 230200Z 2303/2312 VRB02KT CAVOK
    BECMG 2304/2306 27010KT 9999 FEW060 SCT100
    TEMPO 2308/2312 25015G25KT -TSRA SCT060CB BKN090
    PROB40 TEMPO 2309/2312 4500 TSRA SCT030CB BKN050=
TAF LZZI 230200Z 2303/2312 24006KT 9999 FEW040 BKN090
    TEMPO 2303/2310 FEW055CB BKN100
    TEMPO 2303/2306 25020G30KT 3000 TSRA SCT030CB BKN050
    BECMG 2307/2309 26012KT=

skok na menu ↑


skok na začiatok stránky ↑